Time;durP1;ratioP1;P1;durP2;ratioP2;P2;SDS_P1;SDS_P2;PMS_P1;PMS_P2;Temp;Humidity;BMP_temperature;BMP_pressure;BME280_temperature;BME280_humidity;BME280_pressure;Samples;Min_cycle;Max_cycle;Signal;HPM_P1;HPM_P2
2023/08/15 00:01:54;;;;;;;1.30;1.20;;;;;;;24.09;60.13;97373.38;5022336;28;20197;-27
2023/08/15 00:04:20;;;;;;;1.10;1.10;;;;;;;24.13;60.10;97382.00;5018187;28;20230;-27
2023/08/15 00:06:47;;;;;;;1.10;1.10;;;;;;;24.13;60.21;97382.84;5029139;28;20212;-27
2023/08/15 00:09:13;;;;;;;1.03;1.00;;;;;;;24.13;60.15;97384.59;5023145;28;20221;-27
2023/08/15 00:11:40;;;;;;;1.20;1.20;;;;;;;24.13;60.01;97385.44;5028536;28;20201;-27
2023/08/15 00:14:06;;;;;;;1.20;1.20;;;;;;;24.13;59.75;97385.44;5021629;28;20194;-27
2023/08/15 00:16:33;;;;;;;1.23;1.13;;;;;;;24.11;60.09;97387.13;5024557;28;20279;-28
2023/08/15 00:19:01;;;;;;;1.10;1.10;;;;;;;24.13;60.02;97389.72;5036048;28;20196;-27
2023/08/15 00:21:28;;;;;;;1.17;1.13;;;;;;;24.14;60.09;97388.88;5040571;28;20209;-27
2023/08/15 00:23:54;;;;;;;1.03;1.03;;;;;;;24.14;60.10;97396.56;5025845;28;20648;-27
2023/08/15 00:26:21;;;;;;;1.10;1.10;;;;;;;24.13;59.84;97389.72;5040249;28;20221;-27
2023/08/15 00:28:47;;;;;;;1.10;1.10;;;;;;;24.15;59.83;97390.59;5033825;28;20288;-29
2023/08/15 00:31:14;;;;;;;1.03;1.03;;;;;;;24.12;59.81;97383.72;5035059;28;20212;-27
2023/08/15 00:33:41;;;;;;;1.03;1.03;;;;;;;24.14;60.22;97387.19;5031832;28;20655;-27
2023/08/15 00:36:07;;;;;;;0.90;0.90;;;;;;;24.13;60.12;97393.13;5036989;28;20251;-27
2023/08/15 00:38:34;;;;;;;0.90;0.90;;;;;;;24.14;60.15;97392.31;5031782;28;20284;-27
2023/08/15 00:41:00;;;;;;;1.20;1.20;;;;;;;24.13;60.15;97395.69;5032366;28;20197;-27
2023/08/15 00:43:27;;;;;;;1.10;1.10;;;;;;;24.13;59.89;97398.25;5038891;28;20454;-27
2023/08/15 00:45:54;;;;;;;1.10;1.10;;;;;;;24.14;60.16;97396.56;5034009;28;20308;-27
2023/08/15 00:48:20;;;;;;;1.20;1.10;;;;;;;24.15;60.22;97399.16;5032055;28;20197;-28
2023/08/15 00:50:49;;;;;;;1.10;1.10;;;;;;;24.15;60.20;97399.16;5026581;28;20285;-27
2023/08/15 00:53:17;;;;;;;1.23;1.20;;;;;;;24.14;60.15;97394.00;5034265;28;20202;-27
2023/08/15 00:55:44;;;;;;;1.23;1.23;;;;;;;24.11;59.92;97394.81;5006473;28;20257;-27
2023/08/15 01:00:38;;;;;;;1.40;1.30;;;;;;;24.09;60.17;97383.66;5088046;28;20185;-37
2023/08/15 01:03:05;;;;;;;1.10;1.10;;;;;;;24.10;60.17;97385.38;5073298;28;20185;-33
2023/08/15 01:05:32;;;;;;;1.20;1.20;;;;;;;24.13;60.18;97398.25;5068455;28;20452;-48
2023/08/15 01:07:58;;;;;;;1.13;1.13;;;;;;;24.09;60.08;97388.78;5063369;28;20212;-45
2023/08/15 01:10:25;;;;;;;0.93;0.93;;;;;;;24.11;60.17;97399.97;5057856;28;20213;-35
2023/08/15 01:13:02;;;;;;;1.03;1.03;;;;;;;24.12;59.90;97413.66;5054293;28;20177;-50
2023/08/15 01:15:30;;;;;;;1.20;1.20;;;;;;;24.13;59.90;97393.13;5072851;28;20189;-37
2023/08/15 01:18:10;;;;;;;1.10;1.10;;;;;;;24.13;60.16;97392.28;5056545;28;20178;-42
2023/08/15 01:20:37;;;;;;;1.33;1.23;;;;;;;24.07;60.03;97387.88;5060815;28;20186;-42
2023/08/15 01:23:06;;;;;;;1.10;1.10;;;;;;;24.12;60.10;97393.09;5059932;28;20224;-42
2023/08/15 01:25:39;;;;;;;1.40;1.30;;;;;;;23.96;59.96;97363.75;5063133;28;20223;-39
2023/08/15 01:28:09;;;;;;;1.10;1.10;;;;;;;24.06;60.16;97383.59;5067362;28;20216;-55
2023/08/15 01:30:36;;;;;;;1.07;1.07;;;;;;;24.06;59.91;97385.28;5075919;28;20212;-34
2023/08/15 01:33:10;;;;;;;1.10;1.10;;;;;;;24.14;59.92;97386.31;5074062;28;20197;-38
2023/08/15 01:35:38;;;;;;;1.00;1.00;;;;;;;24.08;60.06;97378.50;5061801;28;20208;-44
2023/08/15 01:38:12;;;;;;;1.03;1.03;;;;;;;24.03;60.03;97375.84;5046787;28;20177;-38
2023/08/15 01:40:38;;;;;;;1.10;1.10;;;;;;;24.05;59.91;97366.47;5062542;28;20216;-35
2023/08/15 01:43:05;;;;;;;1.00;1.00;;;;;;;24.10;60.18;97375.09;5040222;28;20177;-38
2023/08/15 01:45:32;;;;;;;1.40;1.20;;;;;;;24.03;60.38;97359.56;5076393;28;20236;-39
2023/08/15 01:47:59;;;;;;;1.10;1.10;;;;;;;24.08;59.86;97365.66;5062120;28;20181;-33
2023/08/15 01:50:27;;;;;;;1.10;1.10;;;;;;;24.08;59.80;97368.22;5069617;28;20235;-55
2023/08/15 01:52:54;;;;;;;1.00;1.00;;;;;;;24.11;59.89;97378.53;5078245;28;20189;-44
2023/08/15 01:55:20;;;;;;;1.10;1.10;;;;;;;24.12;60.10;97381.13;5052132;28;20189;-36
2023/08/15 01:57:47;;;;;;;1.20;1.20;;;;;;;24.16;60.22;97389.78;5071494;28;20193;-40
2023/08/15 02:00:14;;;;;;;1.23;1.17;;;;;;;24.11;60.21;97373.41;5079810;28;20489;-34
2023/08/15 02:02:41;;;;;;;1.10;1.10;;;;;;;24.15;60.29;97378.63;5061198;28;20203;-33
2023/08/15 02:05:08;;;;;;;1.10;1.10;;;;;;;24.15;60.13;97382.88;5079402;28;20184;-41
2023/08/15 02:07:35;;;;;;;1.10;1.10;;;;;;;24.16;60.18;97375.19;5079636;28;20223;-37
2023/08/15 02:10:02;;;;;;;1.07;1.07;;;;;;;24.08;60.13;97357.94;5037638;28;20242;-34
2023/08/15 02:12:29;;;;;;;1.00;1.00;;;;;;;24.10;60.25;97364.84;5062255;28;20387;-31
2023/08/15 02:14:56;;;;;;;1.10;1.10;;;;;;;24.04;60.19;97353.63;5067587;28;20209;-33
2023/08/15 02:17:23;;;;;;;1.10;1.10;;;;;;;24.13;60.16;97371.75;5078793;28;20181;-36
2023/08/15 02:19:49;;;;;;;1.20;1.20;;;;;;;24.04;59.92;97358.75;5071772;28;20219;-50
2023/08/15 02:22:16;;;;;;;0.90;0.90;;;;;;;23.87;59.90;97327.63;5058371;28;20185;-33
2023/08/15 02:24:43;;;;;;;1.00;1.00;;;;;;;24.13;60.29;97376.88;5076070;28;20205;-41
2023/08/15 02:27:10;;;;;;;1.10;1.10;;;;;;;24.11;60.07;97366.59;5043987;28;20446;-38
2023/08/15 02:29:37;;;;;;;1.00;1.00;;;;;;;24.08;60.27;97361.41;5074984;28;20235;-42
2023/08/15 02:32:04;;;;;;;1.10;1.10;;;;;;;23.92;60.42;97332.84;5036690;28;20208;-35
2023/08/15 02:34:30;;;;;;;1.20;1.20;;;;;;;23.92;59.96;97338.81;5059368;28;20189;-39
2023/08/15 02:36:57;;;;;;;1.00;1.00;;;;;;;24.04;59.98;97366.47;5074058;28;20224;-35
2023/08/15 02:39:23;;;;;;;1.10;1.10;;;;;;;24.03;60.00;97360.44;5071882;28;20228;-40
2023/08/15 02:41:50;;;;;;;1.10;1.10;;;;;;;24.08;60.32;97368.22;5049796;28;20212;-38
2023/08/15 02:44:17;;;;;;;1.10;1.10;;;;;;;24.09;60.54;97364.81;5052844;28;20188;-43
2023/08/15 02:46:43;;;;;;;1.17;1.17;;;;;;;24.07;60.11;97362.22;5078201;28;20229;-30
2023/08/15 02:49:10;;;;;;;1.00;1.00;;;;;;;24.08;60.51;97366.53;5067437;28;20207;-41
2023/08/15 02:51:36;;;;;;;1.03;1.03;;;;;;;24.09;60.13;97372.50;5061611;28;20205;-39
2023/08/15 02:54:03;;;;;;;0.90;0.90;;;;;;;24.10;60.27;97369.13;5047606;28;20186;-36
2023/08/15 02:56:30;;;;;;;1.10;1.10;;;;;;;24.09;60.09;97365.69;5061363;28;20209;-45
2023/08/15 02:58:56;;;;;;;1.00;1.00;;;;;;;24.05;60.06;97353.66;5078496;28;20204;-40
2023/08/15 03:01:23;;;;;;;1.00;1.00;;;;;;;23.74;60.38;97299.16;5067074;28;20192;-44
2023/08/15 03:03:50;;;;;;;1.43;1.33;;;;;;;24.07;60.35;97351.94;5066688;28;20220;-34
2023/08/15 03:06:16;;;;;;;1.20;1.10;;;;;;;24.06;60.38;97350.22;5078210;28;20224;-41
2023/08/15 03:08:43;;;;;;;1.03;1.03;;;;;;;24.02;60.34;97350.16;5077775;28;20209;-49
2023/08/15 03:11:10;;;;;;;1.10;1.10;;;;;;;23.87;59.97;97314.81;5064676;28;20189;-47
2023/08/15 03:13:36;;;;;;;1.10;1.10;;;;;;;24.05;60.33;97348.50;5064456;28;20209;-34
2023/08/15 03:16:03;;;;;;;1.10;1.10;;;;;;;24.08;60.15;97358.81;5078311;28;20177;-39
2023/08/15 03:18:30;;;;;;;1.20;1.10;;;;;;;23.99;59.95;97345.84;5069334;28;20201;-38
2023/08/15 03:20:57;;;;;;;1.30;1.20;;;;;;;23.97;60.54;97349.19;5078019;28;20177;-31
2023/08/15 03:23:24;;;;;;;1.00;1.00;;;;;;;23.82;60.35;97325.81;5077610;28;20181;-44
2023/08/15 03:25:58;;;;;;;1.40;1.30;;;;;;;24.08;60.26;97366.53;5077881;28;20216;-34
2023/08/15 03:28:24;;;;;;;1.00;1.00;;;;;;;24.08;60.41;97361.41;5070871;28;20182;-40
2023/08/15 03:30:51;;;;;;;1.10;1.10;;;;;;;24.06;60.03;97357.94;5053137;28;20201;-35
2023/08/15 03:33:18;;;;;;;1.10;1.10;;;;;;;23.96;60.41;97340.66;5049598;28;20204;-45
2023/08/15 03:35:45;;;;;;;1.10;1.10;;;;;;;23.93;60.43;97332.88;5069012;28;20208;-37
2023/08/15 03:38:16;;;;;;;1.17;1.17;;;;;;;24.00;59.96;97350.13;5051808;28;20185;-38
2023/08/15 03:40:43;;;;;;;1.20;1.20;;;;;;;23.96;60.00;97344.91;5075485;28;20177;-43
2023/08/15 03:43:10;;;;;;;1.40;1.30;;;;;;;24.10;60.32;97377.66;5074013;28;20205;-29
2023/08/15 03:45:40;;;;;;;1.10;1.10;;;;;;;23.95;60.36;97348.28;5043162;28;20207;-39
2023/08/15 03:48:07;;;;;;;1.20;1.10;;;;;;;23.96;60.51;97348.34;5061388;28;20181;-37
2023/08/15 03:50:34;;;;;;;0.90;0.90;;;;;;;23.82;60.22;97328.38;5071660;28;20193;-43
2023/08/15 03:53:01;;;;;;;1.13;1.13;;;;;;;23.90;60.21;97343.09;5033596;28;20184;-35
2023/08/15 03:55:28;;;;;;;1.10;1.10;;;;;;;23.88;60.08;97342.19;5077054;28;20189;-32
2023/08/15 03:57:55;;;;;;;1.23;1.20;;;;;;;23.99;60.46;97366.38;5026942;28;20257;-35
2023/08/15 04:00:22;;;;;;;1.13;1.13;;;;;;;23.89;60.45;97346.47;5048746;28;20224;-46
2023/08/15 04:02:48;;;;;;;1.37;1.20;;;;;;;24.04;60.41;97380.13;5068980;28;20177;-36
2023/08/15 04:05:16;;;;;;;1.27;1.17;;;;;;;24.10;60.45;97382.81;5077574;28;20187;-45
2023/08/15 04:07:42;;;;;;;1.30;1.30;;;;;;;23.92;59.95;97354.22;5077263;28;20212;-42
2023/08/15 04:10:11;;;;;;;1.30;1.30;;;;;;;24.08;60.23;97375.94;5076271;28;20192;-33
2023/08/15 04:12:39;;;;;;;1.30;1.20;;;;;;;24.10;60.09;97382.81;5077263;28;20219;-43
2023/08/15 04:15:05;;;;;;;1.27;1.17;;;;;;;24.10;60.27;97380.25;5072663;28;20184;-38
2023/08/15 04:17:32;;;;;;;1.00;1.00;;;;;;;24.08;60.50;97374.25;5060254;28;20181;-51
2023/08/15 04:19:59;;;;;;;1.23;1.23;;;;;;;24.00;60.43;97356.94;5060427;28;20230;-35
2023/08/15 04:22:26;;;;;;;1.30;1.20;;;;;;;24.02;60.28;97366.44;5077663;28;20240;-35
2023/08/15 04:24:52;;;;;;;1.30;1.20;;;;;;;23.91;60.26;97347.38;5046210;28;20200;-38
2023/08/15 04:27:19;;;;;;;1.10;1.10;;;;;;;24.10;60.56;97387.94;5072999;28;20205;-41
2023/08/15 04:29:46;;;;;;;1.10;1.10;;;;;;;23.95;60.25;97363.69;5067571;28;20201;-37
2023/08/15 04:32:13;;;;;;;1.10;1.10;;;;;;;24.09;60.53;97387.91;5066300;28;20245;-46
2023/08/15 04:34:39;;;;;;;1.10;1.10;;;;;;;23.97;60.40;97364.59;5074053;28;20223;-41
2023/08/15 04:37:06;;;;;;;1.20;1.10;;;;;;;24.10;60.48;97385.38;5049980;28;20178;-45
2023/08/15 04:39:32;;;;;;;1.00;1.00;;;;;;;24.11;60.51;97392.25;5073768;28;20200;-45
2023/08/15 04:41:59;;;;;;;1.10;1.10;;;;;;;24.10;60.27;97381.97;5065859;28;20278;-36
2023/08/15 04:44:25;;;;;;;1.00;1.00;;;;;;;24.05;60.14;97376.75;5072541;28;20197;-29
2023/08/15 04:46:52;;;;;;;1.17;1.10;;;;;;;24.11;60.20;97391.38;5075173;28;20255;-41
2023/08/15 04:49:19;;;;;;;1.20;1.20;;;;;;;24.10;60.13;97387.94;5072133;28;20216;-43
2023/08/15 04:51:45;;;;;;;1.10;1.10;;;;;;;24.08;60.25;97397.34;5074470;28;20200;-44
2023/08/15 04:54:12;;;;;;;1.00;1.00;;;;;;;24.11;60.53;97394.81;5046864;28;20182;-39
2023/08/15 04:56:38;;;;;;;1.17;1.17;;;;;;;24.10;60.26;97393.06;5065806;28;20193;-48
2023/08/15 04:59:05;;;;;;;1.10;1.10;;;;;;;24.10;60.34;97395.66;5077400;28;20208;-30
2023/08/15 05:01:31;;;;;;;1.03;1.03;;;;;;;24.09;60.21;97401.63;5068368;28;20178;-42
2023/08/15 05:03:58;;;;;;;1.10;1.10;;;;;;;24.08;60.26;97401.59;5071865;28;20201;-37
2023/08/15 05:06:25;;;;;;;1.17;1.17;;;;;;;24.10;60.26;97411.03;5073554;28;20217;-34
2023/08/15 05:08:52;;;;;;;1.20;1.20;;;;;;;24.02;60.12;97399.81;5070892;28;20206;-44
2023/08/15 05:11:18;;;;;;;1.00;1.00;;;;;;;24.06;60.44;97413.53;5051387;28;20178;-40
2023/08/15 05:13:45;;;;;;;0.97;0.97;;;;;;;24.10;60.50;97425.63;5069878;28;20224;-37
2023/08/15 05:16:11;;;;;;;1.13;1.13;;;;;;;24.08;60.19;97427.28;5073439;28;20181;-46
2023/08/15 05:18:38;;;;;;;1.10;1.10;;;;;;;24.07;60.35;97415.28;5060099;28;20229;-40
2023/08/15 05:21:05;;;;;;;1.07;1.07;;;;;;;23.75;60.47;97368.47;5078271;28;20173;-37
2023/08/15 05:23:32;;;;;;;1.13;1.13;;;;;;;24.10;60.44;97435.88;5067583;28;20197;-44
2023/08/15 05:25:58;;;;;;;1.00;1.00;;;;;;;23.94;60.20;97403.03;5071278;28;20189;-36
2023/08/15 05:28:25;;;;;;;1.20;1.20;;;;;;;23.93;60.43;97412.44;5087015;28;20315;-53
2023/08/15 05:30:52;;;;;;;1.30;1.20;;;;;;;24.12;60.18;97441.88;5061792;28;20185;-41
2023/08/15 05:33:19;;;;;;;1.30;1.20;;;;;;;23.99;60.08;97427.13;5058857;28;20189;-38
2023/08/15 05:35:47;;;;;;;1.10;1.10;;;;;;;24.10;60.18;97446.16;5063457;28;20258;-36
2023/08/15 05:38:13;;;;;;;1.20;1.20;;;;;;;23.96;60.37;97422.81;5050395;28;20202;-35
2023/08/15 05:40:41;;;;;;;1.40;1.30;;;;;;;23.96;60.54;97421.94;5051662;28;20193;-42
2023/08/15 05:43:07;;;;;;;1.10;1.10;;;;;;;24.16;60.13;97465.06;5071907;28;20184;-37
2023/08/15 05:45:34;;;;;;;1.10;1.10;;;;;;;24.05;60.61;97432.34;5056759;28;20211;-45
2023/08/15 05:48:00;;;;;;;1.07;1.07;;;;;;;24.00;60.14;97432.28;5074438;28;20221;-37
2023/08/15 05:50:27;;;;;;;1.37;1.30;;;;;;;24.12;60.43;97450.47;5073615;28;20240;-31
2023/08/15 05:52:53;;;;;;;1.03;1.03;;;;;;;23.95;60.24;97423.63;5054981;28;20181;-45
2023/08/15 05:55:20;;;;;;;1.20;1.20;;;;;;;24.12;60.25;97463.31;5071803;28;20181;-32
2023/08/15 05:57:46;;;;;;;1.10;1.10;;;;;;;24.14;59.92;97458.19;5065478;28;20204;-44
2023/08/15 06:00:13;;;;;;;1.10;1.10;;;;;;;24.01;60.33;97438.28;5073095;28;20213;-47
2023/08/15 06:02:41;;;;;;;1.13;1.13;;;;;;;24.10;60.17;97459.84;5074155;28;20189;-40
2023/08/15 06:05:07;;;;;;;1.10;1.10;;;;;;;23.95;60.09;97440.72;5063801;28;20208;-35
2023/08/15 06:07:34;;;;;;;1.10;1.10;;;;;;;23.96;59.97;97445.91;5062604;28;20276;-45
2023/08/15 06:10:01;;;;;;;1.10;1.10;;;;;;;23.98;60.30;97453.63;5070222;28;20201;-33
2023/08/15 06:12:28;;;;;;;1.20;1.20;;;;;;;24.05;60.45;97464.03;5076194;28;20196;-32
2023/08/15 06:14:55;;;;;;;1.10;1.10;;;;;;;23.88;60.54;97439.72;5069430;28;20188;-47
2023/08/15 06:17:21;;;;;;;1.00;1.00;;;;;;;23.91;60.45;97444.03;5066385;28;20185;-48
2023/08/15 06:19:48;;;;;;;1.10;1.10;;;;;;;24.00;60.43;97465.66;5079242;28;20224;-44
2023/08/15 06:22:15;;;;;;;1.13;1.13;;;;;;;23.90;60.39;97447.44;5071243;28;20204;-40
2023/08/15 06:24:41;;;;;;;1.30;1.30;;;;;;;24.09;60.59;97476.09;5071112;28;20196;-40
2023/08/15 06:27:08;;;;;;;1.17;1.17;;;;;;;24.09;60.51;97475.22;5067249;28;20213;-41
2023/08/15 06:29:35;;;;;;;1.20;1.20;;;;;;;23.94;60.15;97447.53;5077026;28;20197;-32
2023/08/15 06:32:02;;;;;;;1.20;1.20;;;;;;;24.06;60.12;97465.75;5078678;28;20185;-39
2023/08/15 06:34:28;;;;;;;1.03;1.03;;;;;;;24.09;60.31;97470.06;5053873;28;20185;-41
2023/08/15 06:36:55;;;;;;;1.40;1.30;;;;;;;24.00;60.42;97457.06;5052631;28;20181;-50
2023/08/15 06:39:22;;;;;;;1.10;1.10;;;;;;;23.95;60.24;97448.41;5048139;28;20197;-47
2023/08/15 06:41:48;;;;;;;1.10;1.10;;;;;;;23.92;60.41;97448.34;5053165;28;20207;-47
2023/08/15 06:44:15;;;;;;;1.27;1.27;;;;;;;23.89;60.36;97436.31;5059100;28;20186;-45
2023/08/15 06:46:42;;;;;;;1.27;1.20;;;;;;;23.98;60.45;97458.75;5074690;28;20201;-34
2023/08/15 06:49:08;;;;;;;1.00;1.00;;;;;;;24.07;60.32;97475.19;5078222;28;20204;-42
2023/08/15 06:51:35;;;;;;;1.13;1.13;;;;;;;24.08;60.23;97483.75;5069796;28;20201;-41
2023/08/15 06:54:01;;;;;;;1.40;1.30;;;;;;;24.09;60.20;97488.94;5048655;28;20189;-38
2023/08/15 06:56:28;;;;;;;1.00;1.00;;;;;;;23.90;60.04;97453.47;5064577;28;20180;-36
2023/08/15 07:01:22;;;;;;;1.00;1.00;;;;;;;24.11;60.46;97494.09;5070148;28;20201;-27
2023/08/15 07:03:49;;;;;;;1.10;1.10;;;;;;;24.11;60.25;97479.56;5070446;28;20242;-27
2023/08/15 07:06:16;;;;;;;1.10;1.10;;;;;;;24.11;60.45;97482.13;5072662;28;20218;-27
2023/08/15 07:08:43;;;;;;;1.13;1.13;;;;;;;24.12;60.29;97475.25;5072435;28;20298;-27
2023/08/15 07:11:09;;;;;;;1.20;1.20;;;;;;;24.12;60.14;97478.72;5060514;28;20209;-27
2023/08/15 07:13:36;;;;;;;1.10;1.10;;;;;;;24.11;60.03;97479.56;5052672;28;20251;-34
2023/08/15 07:16:02;;;;;;;0.90;0.90;;;;;;;24.12;60.41;97480.41;5058364;28;20254;-27
2023/08/15 07:18:29;;;;;;;1.10;1.10;;;;;;;24.02;60.68;97474.25;5055840;28;20204;-27
2023/08/15 07:20:55;;;;;;;1.00;1.00;;;;;;;24.11;60.43;97481.25;5052745;28;20225;-29
2023/08/15 07:23:22;;;;;;;1.00;1.00;;;;;;;24.12;60.18;97480.41;5056653;28;20200;-28
2023/08/15 07:25:48;;;;;;;1.10;1.10;;;;;;;24.12;60.42;97480.41;5052237;28;20205;-27
2023/08/15 07:28:15;;;;;;;1.23;1.13;;;;;;;24.12;60.15;97481.28;5052406;28;20251;-27
2023/08/15 07:30:45;;;;;;;1.13;1.13;;;;;;;24.12;60.19;97482.97;5052407;28;20608;-27
2023/08/15 07:33:12;;;;;;;1.03;1.03;;;;;;;24.12;60.44;97488.09;5052105;28;20323;-27
2023/08/15 07:35:39;;;;;;;0.93;0.93;;;;;;;24.11;60.35;97500.09;5055210;28;20208;-27
2023/08/15 07:38:06;;;;;;;1.13;1.10;;;;;;;24.11;60.46;97494.09;5055036;28;20263;-27
2023/08/15 07:40:33;;;;;;;1.20;1.20;;;;;;;24.12;60.15;97494.13;5064117;28;20261;-27
2023/08/15 07:43:00;;;;;;;1.30;1.20;;;;;;;24.12;60.12;97500.94;5062546;28;20212;-27
2023/08/15 07:45:26;;;;;;;1.03;1.03;;;;;;;24.11;60.36;97502.66;5058883;28;20201;-27
2023/08/15 07:47:54;;;;;;;1.20;1.10;;;;;;;24.12;60.44;97506.09;5054020;28;20308;-28
2023/08/15 07:50:22;;;;;;;1.00;1.00;;;;;;;24.09;60.45;97501.75;5051655;28;20221;-27
2023/08/15 07:52:49;;;;;;;1.10;1.10;;;;;;;24.12;60.15;97503.50;5055263;28;20205;-28
2023/08/15 07:55:16;;;;;;;1.10;1.10;;;;;;;24.11;60.33;97500.09;5054849;28;20235;-27
2023/08/15 07:57:45;;;;;;;1.10;1.10;;;;;;;24.11;60.34;97504.38;5056950;28;20205;-27
2023/08/15 08:00:15;;;;;;;1.10;1.10;;;;;;;24.12;60.43;97514.66;5059849;28;20574;-27
2023/08/15 08:02:42;;;;;;;1.20;1.20;;;;;;;24.12;60.36;97511.22;5060051;28;20212;-28
2023/08/15 08:05:09;;;;;;;1.10;1.10;;;;;;;24.12;60.24;97509.53;5051734;28;20237;-27
2023/08/15 08:07:37;;;;;;;1.00;1.00;;;;;;;24.13;60.08;97511.25;5060275;28;20303;-27
2023/08/15 08:10:04;;;;;;;1.00;1.00;;;;;;;24.13;59.91;97511.25;5051796;28;20224;-27
2023/08/15 08:12:31;;;;;;;1.20;1.10;;;;;;;24.13;60.07;97518.09;5060419;28;20244;-27
2023/08/15 08:14:57;;;;;;;1.00;1.00;;;;;;;24.07;60.13;97508.56;5059935;28;20571;-27
2023/08/15 08:17:24;;;;;;;1.00;1.00;;;;;;;24.13;60.10;97518.09;5059964;28;20494;-27
2023/08/15 08:19:51;;;;;;;1.10;1.10;;;;;;;24.12;60.23;97512.09;5052025;28;20221;-27
2023/08/15 08:22:17;;;;;;;1.23;1.23;;;;;;;24.12;60.23;97514.66;5063372;28;20673;-27
2023/08/15 08:24:45;;;;;;;1.17;1.17;;;;;;;24.13;60.08;97511.25;5055470;28;20208;-27
2023/08/15 08:27:12;;;;;;;1.20;1.20;;;;;;;24.13;60.14;97507.84;5059857;28;20227;-27
2023/08/15 08:29:39;;;;;;;1.10;1.10;;;;;;;24.14;60.13;97507.00;5059863;28;20252;-27
2023/08/15 08:32:05;;;;;;;1.33;1.23;;;;;;;24.12;60.17;97504.38;5067820;28;20666;-27
2023/08/15 08:34:32;;;;;;;1.30;1.20;;;;;;;24.12;60.52;97506.97;5038812;28;20265;-27
2023/08/15 08:36:58;;;;;;;1.00;1.00;;;;;;;24.13;60.24;97513.81;5072447;28;20725;-27
2023/08/15 08:39:25;;;;;;;1.37;1.27;;;;;;;24.12;60.23;97512.09;5055748;28;20322;-27
2023/08/15 08:41:58;;;;;;;1.40;1.30;;;;;;;24.13;60.02;97508.69;5064116;28;20236;-27
2023/08/15 08:44:25;;;;;;;1.10;1.10;;;;;;;24.11;60.56;97506.94;5031132;28;20200;-27
2023/08/15 08:46:51;;;;;;;1.10;1.10;;;;;;;24.12;60.57;97506.97;5018054;28;20201;-27
2023/08/15 08:49:18;;;;;;;1.17;1.17;;;;;;;24.13;60.46;97505.25;5065275;28;20284;-27
2023/08/15 08:51:44;;;;;;;1.10;1.10;;;;;;;24.12;60.48;97503.50;5033827;28;20197;-27
2023/08/15 08:54:11;;;;;;;1.17;1.10;;;;;;;24.10;60.25;97500.91;5023135;28;20232;-27
2023/08/15 08:56:39;;;;;;;1.20;1.20;;;;;;;23.93;60.29;97468.03;5052320;28;20713;-27
2023/08/15 08:59:05;;;;;;;1.10;1.10;;;;;;;24.11;60.18;97504.38;5029565;28;20603;-27
2023/08/15 09:01:32;;;;;;;1.10;1.10;;;;;;;24.11;60.11;97502.66;5021390;28;20543;-27
2023/08/15 09:03:58;;;;;;;1.00;1.00;;;;;;;24.13;60.33;97502.69;5032173;28;20200;-29
2023/08/15 09:06:27;;;;;;;1.00;1.00;;;;;;;24.13;60.47;97500.97;5050192;28;20205;-27
2023/08/15 09:08:57;;;;;;;1.00;1.00;;;;;;;24.13;60.35;97497.56;5060945;28;20310;-27
2023/08/15 09:11:23;;;;;;;1.10;1.10;;;;;;;24.14;60.37;97502.72;5054787;28;20208;-27
2023/08/15 09:13:50;;;;;;;1.20;1.20;;;;;;;24.14;60.34;97496.72;5024859;28;20236;-27
2023/08/15 09:16:17;;;;;;;1.13;1.13;;;;;;;24.10;60.21;97484.66;5054967;28;20201;-32
2023/08/15 09:18:44;;;;;;;1.30;1.20;;;;;;;24.15;60.54;97483.91;5056827;28;20292;-27
2023/08/15 09:21:13;;;;;;;1.20;1.20;;;;;;;24.16;60.56;97484.78;5034087;28;20197;-27
2023/08/15 09:23:40;;;;;;;1.20;1.20;;;;;;;24.17;60.20;97489.06;5060142;28;20686;-28
2023/08/15 09:26:14;;;;;;;1.10;1.10;;;;;;;24.17;60.03;97489.06;5057855;28;20637;-27
2023/08/15 09:28:41;;;;;;;1.27;1.27;;;;;;;24.16;60.34;97488.19;5066371;28;20220;-27
2023/08/15 09:31:09;;;;;;;1.10;1.10;;;;;;;24.17;60.54;97482.25;5059130;28;20283;-27
2023/08/15 09:33:37;;;;;;;1.20;1.20;;;;;;;24.15;60.35;97471.06;5066402;28;20200;-35
2023/08/15 09:36:07;;;;;;;1.30;1.20;;;;;;;24.15;60.03;97476.19;5065271;28;20243;-27
2023/08/15 09:38:37;;;;;;;1.20;1.20;;;;;;;24.15;60.35;97478.75;5067617;28;20238;-27
2023/08/15 09:41:04;;;;;;;1.07;1.07;;;;;;;24.13;60.13;97477.88;5060504;28;20278;-27
2023/08/15 09:43:32;;;;;;;1.03;1.03;;;;;;;24.11;60.03;97469.28;5062218;28;20201;-27
2023/08/15 09:45:58;;;;;;;1.10;1.10;;;;;;;24.12;60.09;97471.00;5057384;28;20255;-27
2023/08/15 09:48:28;;;;;;;1.00;1.00;;;;;;;24.14;60.20;97468.47;5054918;28;20256;-28
2023/08/15 09:50:56;;;;;;;1.10;1.10;;;;;;;24.12;60.38;97465.00;5054057;28;20228;-27
2023/08/15 09:53:23;;;;;;;1.33;1.30;;;;;;;24.11;60.51;97478.69;5056808;28;20207;-27
2023/08/15 09:55:50;;;;;;;1.20;1.20;;;;;;;24.12;60.30;97473.56;5066110;28;20644;-27
2023/08/15 09:58:17;;;;;;;1.50;1.40;;;;;;;24.08;60.53;97465.78;5067946;28;20261;-27
2023/08/15 10:00:43;;;;;;;1.20;1.20;;;;;;;24.11;60.46;97477.00;5064260;28;20228;-27
2023/08/15 10:03:24;;;;;;;1.50;1.40;;;;;;;24.11;60.29;97466.72;5025876;28;20293;-27
2023/08/15 10:05:53;;;;;;;1.10;1.10;;;;;;;24.13;60.16;97472.72;5051650;28;20252;-27
2023/08/15 10:08:20;;;;;;;1.30;1.30;;;;;;;24.11;60.53;97464.16;5052761;28;20209;-27
2023/08/15 10:10:49;;;;;;;1.43;1.20;;;;;;;24.11;60.60;97474.44;5062129;28;20248;-27
2023/08/15 10:13:15;;;;;;;1.20;1.20;;;;;;;24.12;60.56;97481.28;5063661;28;20205;-27
2023/08/15 10:15:42;;;;;;;1.20;1.20;;;;;;;24.10;60.33;97475.25;5035766;28;20258;-27
2023/08/15 10:18:09;;;;;;;1.07;1.07;;;;;;;24.11;60.66;97482.13;5009502;28;20225;-27
2023/08/15 10:20:38;;;;;;;1.37;1.33;;;;;;;24.11;60.57;97477.00;5044722;28;20644;-27
2023/08/15 10:23:07;;;;;;;1.10;1.10;;;;;;;24.11;60.43;97476.13;5045941;28;20570;-27
2023/08/15 10:25:36;;;;;;;1.40;1.30;;;;;;;24.12;60.27;97483.84;5021323;28;20200;-27
2023/08/15 10:28:05;;;;;;;1.07;1.07;;;;;;;24.11;60.75;97476.13;5061737;28;20753;-27
2023/08/15 10:30:35;;;;;;;1.40;1.30;;;;;;;24.12;60.58;97478.72;5056775;28;20243;-27
2023/08/15 10:33:11;;;;;;;1.27;1.27;;;;;;;24.13;60.62;97479.59;5055385;28;20315;-27
2023/08/15 10:35:47;;;;;;;1.50;1.40;;;;;;;24.13;60.61;97480.44;5046547;28;20200;-27
2023/08/15 10:38:14;;;;;;;1.40;1.30;;;;;;;24.12;60.56;97472.69;5061757;28;20200;-36
2023/08/15 10:40:43;;;;;;;1.67;1.30;;;;;;;24.11;60.28;97470.97;5053389;28;20271;-27
2023/08/15 10:43:11;;;;;;;1.50;1.40;;;;;;;24.12;60.60;97476.16;5040251;28;20239;-28
2023/08/15 10:45:40;;;;;;;1.50;1.40;;;;;;;24.13;60.61;97466.75;5059291;28;20200;-31
2023/08/15 10:48:08;;;;;;;1.40;1.30;;;;;;;24.11;60.61;97470.97;5064856;28;20224;-27
2023/08/15 10:50:36;;;;;;;1.40;1.30;;;;;;;24.11;60.13;97468.41;5059936;28;20220;-27
2023/08/15 10:53:04;;;;;;;1.40;1.30;;;;;;;24.13;60.66;97477.03;5057821;28;20196;-27
2023/08/15 10:55:34;;;;;;;1.30;1.30;;;;;;;24.13;60.54;97474.44;5052930;28;20213;-27
2023/08/15 10:58:05;;;;;;;1.40;1.30;;;;;;;24.12;60.33;97477.84;5059550;28;20571;-27
2023/08/15 11:00:32;;;;;;;1.50;1.40;;;;;;;24.12;60.44;97475.25;5058841;28;20232;-27
2023/08/15 11:03:00;;;;;;;1.20;1.20;;;;;;;24.09;60.44;97467.50;5062190;28;20204;-27
2023/08/15 11:05:27;;;;;;;1.10;1.10;;;;;;;24.12;60.24;97476.16;5061835;28;20200;-28
2023/08/15 11:07:55;;;;;;;1.10;1.10;;;;;;;24.12;59.75;97470.13;5061111;28;20455;-29
2023/08/15 11:10:22;;;;;;;1.30;1.20;;;;;;;24.12;59.89;97471.00;5059929;28;20268;-27
2023/08/15 11:12:49;;;;;;;3.00;1.20;;;;;;;24.12;60.38;97477.84;5058209;28;20739;-27
2023/08/15 11:15:16;;;;;;;3.43;1.27;;;;;;;24.13;60.08;97471.88;5060237;28;20258;-27
2023/08/15 11:17:46;;;;;;;3.37;1.53;;;;;;;24.13;60.35;97480.44;5060244;28;20260;-27
2023/08/15 11:20:13;;;;;;;7.93;1.37;;;;;;;24.15;60.39;97477.88;5050381;28;20311;-27
2023/08/15 11:22:40;;;;;;;12.90;2.10;;;;;;;24.13;60.10;97471.88;5053385;28;20196;-28
2023/08/15 11:25:10;;;;;;;4.03;1.47;;;;;;;24.14;60.46;97473.59;5056524;28;20655;-27
2023/08/15 11:27:40;;;;;;;4.67;1.80;;;;;;;24.14;60.46;97471.03;5051998;28;20201;-27
2023/08/15 11:30:08;;;;;;;3.83;1.60;;;;;;;24.15;61.21;97473.63;5059921;28;20220;-27
2023/08/15 11:32:38;;;;;;;8.10;1.93;;;;;;;24.14;59.90;97464.22;5058995;28;20223;-27
2023/08/15 11:35:05;;;;;;;5.30;1.60;;;;;;;24.15;60.39;97470.19;5061553;28;20197;-27
2023/08/15 11:37:32;;;;;;;5.70;1.93;;;;;;;24.15;60.15;97465.06;5040492;28;20203;-27
2023/08/15 11:39:58;;;;;;;11.77;2.00;;;;;;;24.15;60.02;97460.78;5057496;28;20270;-27